Alert, Canada
Current Conditions -  °F | °C
As of 8:00 AM on Thursday 18 Dec 2014 (Local Time) from CYLT Reporting Station
Light Snow Light Snow  
Wind Chill: -17°   Ceiling: 8000
Heat Index: -17°   Visibility: 10mi
Dew Point: -24°   Wind: 2mph
Humidity: 70%   Direction: 160°SSE
Pressure: 29.94"   Gusts: NA
Location:  82.47°N, 62.5°W
Report Text: CYLT 181300Z 16002KT 10SM -SN FEW040 BKN080 M27/M31 A2994 RMKSC2AC2 PCPN VRY LGT SLP143
Loading
Personal Weather Stations






























Interactive Weather Map New forecast layout! Learn more

10-Day Weather Forecast

Advertisements
Track Severe Weather on mobile